createdAt,value
2018-06-24T00:00:56.115Z,95.00
2018-06-24T00:02:58.715Z,94.80
2018-06-24T00:05:01.259Z,95.40
2018-06-24T00:07:03.880Z,95.60
2018-06-24T00:09:07.757Z,95.40
2018-06-24T00:11:10.739Z,95.70
2018-06-24T00:13:13.320Z,95.70
2018-06-24T00:15:15.921Z,95.80
2018-06-24T00:17:18.405Z,96.00
2018-06-24T00:19:20.940Z,96.00
2018-06-24T00:21:23.470Z,96.10
2018-06-24T00:23:26.144Z,96.10
2018-06-24T00:25:28.757Z,96.30
2018-06-24T00:27:31.238Z,96.20
2018-06-24T00:29:33.785Z,96.30
2018-06-24T00:31:36.263Z,96.30
2018-06-24T00:33:38.744Z,96.90
2018-06-24T00:35:41.295Z,96.80
2018-06-24T00:37:43.972Z,97.00
2018-06-24T00:39:46.503Z,96.70
2018-06-24T00:41:48.936Z,97.00
2018-06-24T00:43:51.409Z,97.20
2018-06-24T00:45:53.975Z,96.80
2018-06-24T00:47:56.628Z,97.00
2018-06-24T00:49:59.307Z,96.30
2018-06-24T00:52:01.900Z,96.60
2018-06-24T00:54:04.482Z,96.70
2018-06-24T00:56:07.024Z,96.90
2018-06-24T00:58:09.486Z,96.60
2018-06-24T01:00:14.424Z,96.70
2018-06-24T01:02:17.003Z,96.60
2018-06-24T01:04:19.616Z,96.60
2018-06-24T01:06:22.279Z,96.50
2018-06-24T01:08:24.712Z,96.80
2018-06-24T01:10:27.216Z,96.50
2018-06-24T01:12:29.859Z,96.20
2018-06-24T01:14:32.327Z,96.30
2018-06-24T01:16:34.958Z,96.10
2018-06-24T01:18:37.537Z,96.50
2018-06-24T01:20:40.062Z,96.50
2018-06-24T01:22:42.646Z,96.30
2018-06-24T01:24:45.144Z,96.30
2018-06-24T01:26:47.692Z,96.20
2018-06-24T01:28:50.301Z,96.40
2018-06-24T01:30:52.852Z,96.20
2018-06-24T01:32:55.401Z,96.60
2018-06-24T01:34:57.886Z,96.90
2018-06-24T01:37:00.338Z,96.60
2018-06-24T01:39:03.205Z,96.50
2018-06-24T01:41:05.746Z,96.60
2018-06-24T01:43:08.383Z,96.50
2018-06-24T01:45:11.042Z,96.80
2018-06-24T01:47:13.643Z,96.80
2018-06-24T01:49:16.144Z,96.50
2018-06-24T01:51:18.597Z,97.50
2018-06-24T01:53:21.223Z,97.30
2018-06-24T01:55:23.801Z,97.40
2018-06-24T01:57:26.341Z,96.80
2018-06-24T01:59:28.848Z,97.40
2018-06-24T02:01:31.308Z,97.30
2018-06-24T02:03:33.878Z,97.30
2018-06-24T02:05:36.534Z,97.40
2018-06-24T02:07:39.127Z,98.20
2018-06-24T02:09:41.612Z,98.40
2018-06-24T02:11:44.157Z,98.70
2018-06-24T02:13:46.705Z,98.80
2018-06-24T02:15:49.296Z,98.80
2018-06-24T02:17:51.910Z,99.30
2018-06-24T02:19:54.445Z,99.40
2018-06-24T02:21:56.968Z,99.80
2018-06-24T02:23:59.450Z,99.90
2018-06-24T02:26:02.026Z,99.80
2018-06-24T02:28:04.876Z,99.90
2018-06-24T02:30:07.517Z,99.90
2018-06-24T02:32:10.079Z,99.90
2018-06-24T02:34:12.594Z,99.90
2018-06-24T02:36:15.175Z,99.90
2018-06-24T02:38:17.699Z,99.90
2018-06-24T02:40:20.440Z,99.90
2018-06-24T02:42:22.947Z,99.90
2018-06-24T02:44:25.597Z,99.90
2018-06-24T02:46:28.127Z,99.90
2018-06-24T02:48:30.674Z,99.90
2018-06-24T02:50:33.253Z,99.90
2018-06-24T02:52:35.779Z,99.90
2018-06-24T02:54:38.447Z,99.90
2018-06-24T02:56:41.006Z,99.90
2018-06-24T02:58:43.611Z,99.90
2018-06-24T03:00:46.098Z,99.90
2018-06-24T03:02:48.597Z,99.90
2018-06-24T03:04:51.089Z,99.90
2018-06-24T03:06:53.725Z,99.90
2018-06-24T03:08:56.252Z,99.90
2018-06-24T03:10:58.742Z,99.90
2018-06-24T03:13:01.315Z,99.90
2018-06-24T03:15:03.892Z,99.90
2018-06-24T03:17:06.445Z,99.90
2018-06-24T03:19:08.988Z,99.90
2018-06-24T03:21:11.699Z,99.90
2018-06-24T03:23:14.350Z,99.90
2018-06-24T03:25:16.885Z,99.90
2018-06-24T03:27:19.484Z,99.90
2018-06-24T03:29:22.076Z,99.90
2018-06-24T03:31:24.612Z,99.90
2018-06-24T03:33:27.214Z,99.90
2018-06-24T03:35:29.687Z,99.90
2018-06-24T03:37:32.279Z,99.90
2018-06-24T03:39:34.761Z,99.90
2018-06-24T03:41:37.259Z,99.90
2018-06-24T03:43:39.955Z,99.90
2018-06-24T03:45:42.373Z,99.90
2018-06-24T03:47:44.889Z,99.90
2018-06-24T03:51:50.003Z,99.90
2018-06-24T03:53:52.612Z,99.90
2018-06-24T03:55:55.223Z,99.90
2018-06-24T03:57:57.785Z,99.90
2018-06-24T04:00:00.293Z,99.90
2018-06-24T04:02:02.796Z,99.90
2018-06-24T04:04:05.371Z,99.90
2018-06-24T04:06:08.062Z,99.90
2018-06-24T04:08:10.700Z,99.90
2018-06-24T04:10:13.348Z,99.90
2018-06-24T04:12:16.046Z,99.90
2018-06-24T04:14:18.672Z,99.90
2018-06-24T04:16:21.182Z,99.90
2018-06-24T04:18:27.606Z,99.90
2018-06-24T04:20:30.115Z,99.90
2018-06-24T04:22:32.691Z,99.90
2018-06-24T04:24:35.492Z,99.90
2018-06-24T04:26:38.137Z,99.90
2018-06-24T04:28:41.071Z,99.90
2018-06-24T04:30:43.602Z,99.90
2018-06-24T04:32:46.282Z,99.90
2018-06-24T04:34:48.894Z,99.90
2018-06-24T04:36:51.586Z,99.90
2018-06-24T04:38:54.180Z,99.90
2018-06-24T04:40:57.930Z,99.90
2018-06-24T04:43:00.520Z,99.90
2018-06-24T04:45:03.389Z,99.90
2018-06-24T04:47:05.925Z,99.90
2018-06-24T04:49:08.449Z,99.90
2018-06-24T04:51:11.135Z,99.90
2018-06-24T04:55:16.062Z,99.90
2018-06-24T04:57:18.735Z,99.90
2018-06-24T04:59:21.400Z,99.90
2018-06-24T05:01:24.072Z,99.90
2018-06-24T05:03:26.707Z,99.90
2018-06-24T05:05:29.403Z,99.90
2018-06-24T05:07:31.902Z,99.90
2018-06-24T05:09:34.525Z,99.90
2018-06-24T05:11:37.067Z,99.90
2018-06-24T05:13:40.134Z,99.90
2018-06-24T05:15:42.723Z,99.90
2018-06-24T05:17:45.290Z,99.90
2018-06-24T05:19:48.123Z,99.90
2018-06-24T05:21:50.677Z,99.90
2018-06-24T05:23:53.425Z,99.90
2018-06-24T05:25:55.995Z,99.90
2018-06-24T05:27:58.462Z,99.90
2018-06-24T05:30:01.214Z,99.90
2018-06-24T05:32:03.917Z,99.90
2018-06-24T05:34:06.632Z,99.90
2018-06-24T05:36:09.354Z,99.90
2018-06-24T05:38:11.906Z,99.90
2018-06-24T05:40:14.588Z,99.90
2018-06-24T05:42:17.269Z,99.90
2018-06-24T05:44:19.938Z,99.90
2018-06-24T05:46:22.533Z,99.90
2018-06-24T05:48:25.069Z,99.90
2018-06-24T05:50:27.721Z,99.90
2018-06-24T05:52:30.286Z,99.90
2018-06-24T05:54:33.016Z,99.90
2018-06-24T05:56:35.770Z,99.90
2018-06-24T05:58:38.390Z,99.90
2018-06-24T06:00:41.047Z,99.90
2018-06-24T06:02:43.596Z,99.90
2018-06-24T06:04:46.257Z,99.90
2018-06-24T06:06:48.937Z,99.90
2018-06-24T06:08:51.600Z,99.90
2018-06-24T06:12:56.913Z,99.90
2018-06-24T06:14:59.430Z,99.90
2018-06-24T06:17:02.018Z,99.90
2018-06-24T06:19:04.968Z,99.90
2018-06-24T06:21:07.762Z,99.90
2018-06-24T06:23:10.419Z,99.90
2018-06-24T06:25:13.154Z,99.90
2018-06-24T06:27:15.817Z,99.90
2018-06-24T06:29:18.466Z,99.90
2018-06-24T06:31:20.970Z,99.90
2018-06-24T06:33:23.508Z,99.90
2018-06-24T06:35:26.252Z,99.90
2018-06-24T06:37:28.828Z,99.90
2018-06-24T06:39:31.474Z,99.90
2018-06-24T06:41:34.187Z,99.90
2018-06-24T06:43:36.822Z,99.90
2018-06-24T06:45:39.784Z,99.90
2018-06-24T06:49:44.510Z,99.90
2018-06-24T06:51:47.195Z,99.90
2018-06-24T06:53:49.929Z,99.90
2018-06-24T06:55:52.694Z,99.90
2018-06-24T06:57:55.364Z,99.70
2018-06-24T06:59:57.923Z,99.40
2018-06-24T07:02:00.475Z,99.60
2018-06-24T07:04:03.114Z,99.50
2018-06-24T07:06:05.674Z,99.10
2018-06-24T07:08:08.287Z,98.60
2018-06-24T07:10:10.984Z,99.40
2018-06-24T07:12:13.454Z,99.00
2018-06-24T07:14:16.105Z,99.00
2018-06-24T07:16:18.659Z,98.50
2018-06-24T07:18:21.234Z,97.80
2018-06-24T07:20:23.931Z,98.50
2018-06-24T07:22:26.549Z,97.90
2018-06-24T07:24:29.154Z,97.70
2018-06-24T07:26:31.749Z,97.10
2018-06-24T07:28:34.270Z,96.50
2018-06-24T07:30:37.080Z,96.60
2018-06-24T07:32:39.697Z,96.40
2018-06-24T07:34:42.318Z,96.30
2018-06-24T07:36:45.227Z,95.30
2018-06-24T07:38:47.919Z,95.40
2018-06-24T07:40:50.443Z,94.70
2018-06-24T07:42:53.331Z,94.40
2018-06-24T07:44:56.143Z,93.40
2018-06-24T07:46:58.882Z,92.50
2018-06-24T07:49:01.667Z,93.30
2018-06-24T07:51:04.346Z,91.30
2018-06-24T07:53:07.084Z,91.70
2018-06-24T07:55:09.632Z,93.00
2018-06-24T07:57:12.659Z,93.10
2018-06-24T08:01:18.083Z,95.00
2018-06-24T08:03:20.828Z,94.90
2018-06-24T08:05:23.324Z,93.60
2018-06-24T08:07:25.950Z,93.90
2018-06-24T08:09:28.755Z,93.80
2018-06-24T08:11:31.336Z,93.70
2018-06-24T08:13:34.647Z,94.30
2018-06-24T08:15:37.267Z,93.30
2018-06-24T08:17:40.405Z,92.20
2018-06-24T08:19:43.132Z,92.90
2018-06-24T08:21:45.857Z,92.60
2018-06-24T08:23:49.031Z,91.70
2018-06-24T08:25:51.553Z,91.50
2018-06-24T08:27:54.182Z,90.40
2018-06-24T08:29:56.694Z,89.90
2018-06-24T08:31:59.298Z,88.30
2018-06-24T08:34:01.907Z,89.00
2018-06-24T08:36:04.688Z,87.70
2018-06-24T08:38:07.469Z,88.50
2018-06-24T08:40:10.265Z,85.50
2018-06-24T08:42:13.078Z,81.60
2018-06-24T08:44:15.754Z,87.60
2018-06-24T08:46:18.374Z,83.20
2018-06-24T08:48:21.251Z,81.80
2018-06-24T08:50:23.926Z,82.60
2018-06-24T08:52:26.666Z,79.60
2018-06-24T08:54:29.302Z,83.00
2018-06-24T08:56:32.011Z,83.70
2018-06-24T08:58:34.790Z,84.80
2018-06-24T09:00:37.450Z,86.00
2018-06-24T09:02:40.206Z,80.70
2018-06-24T09:04:42.876Z,83.30
2018-06-24T09:06:45.628Z,81.20
2018-06-24T09:08:48.546Z,81.90
2018-06-24T09:10:51.128Z,83.80
2018-06-24T09:12:53.815Z,79.20
2018-06-24T09:14:56.430Z,83.80
2018-06-24T09:16:58.932Z,86.90
2018-06-24T09:19:01.573Z,89.90
2018-06-24T09:21:04.209Z,90.10
2018-06-24T09:23:06.802Z,87.30
2018-06-24T09:25:09.373Z,89.40
2018-06-24T09:27:12.016Z,90.80
2018-06-24T09:29:14.738Z,89.90
2018-06-24T09:31:17.331Z,88.30
2018-06-24T09:33:19.938Z,87.20
2018-06-24T09:35:22.737Z,85.20
2018-06-24T09:37:25.409Z,85.50
2018-06-24T09:39:28.153Z,80.20
2018-06-24T09:41:30.728Z,83.50
2018-06-24T09:43:33.459Z,83.40
2018-06-24T09:45:35.988Z,83.40
2018-06-24T09:47:38.672Z,83.50
2018-06-24T09:49:41.271Z,84.20
2018-06-24T09:51:44.196Z,86.00
2018-06-24T09:53:46.934Z,84.60
2018-06-24T09:55:49.708Z,86.60
2018-06-24T09:57:52.489Z,88.60
2018-06-24T09:59:55.145Z,85.10
2018-06-24T10:01:57.671Z,85.40
2018-06-24T10:04:00.790Z,86.50
2018-06-24T10:06:03.348Z,87.40
2018-06-24T10:08:05.990Z,85.10
2018-06-24T10:10:08.684Z,85.70
2018-06-24T10:12:11.269Z,88.20
2018-06-24T10:14:13.892Z,88.30
2018-06-24T10:16:16.423Z,86.80
2018-06-24T10:18:19.020Z,85.00
2018-06-24T10:20:24.962Z,87.60
2018-06-24T10:22:27.418Z,88.10
2018-06-24T10:24:30.038Z,88.50
2018-06-24T10:26:32.815Z,90.70
2018-06-24T10:28:35.394Z,91.00
2018-06-24T10:30:38.242Z,87.10
2018-06-24T10:32:40.810Z,88.70
2018-06-24T10:36:45.858Z,90.20
2018-06-24T10:38:48.395Z,91.40
2018-06-24T10:40:50.990Z,91.20
2018-06-24T10:42:53.497Z,91.90
2018-06-24T10:44:56.040Z,92.50
2018-06-24T10:49:01.123Z,93.70
2018-06-24T10:51:03.799Z,93.20
2018-06-24T10:53:06.860Z,93.60
2018-06-24T10:57:11.893Z,92.40
2018-06-24T10:59:14.412Z,91.60
2018-06-24T11:01:16.964Z,92.00
2018-06-24T11:03:19.500Z,91.80
2018-06-24T11:09:27.247Z,91.30
2018-06-24T11:11:29.678Z,91.30
2018-06-24T11:13:32.172Z,91.30
2018-06-24T11:15:34.819Z,91.80
2018-06-24T11:17:37.441Z,91.30
2018-06-24T11:19:40.222Z,91.40
2018-06-24T11:21:43.056Z,92.10
2018-06-24T11:23:45.594Z,91.80
2018-06-24T11:25:48.072Z,93.20
2018-06-24T11:27:50.707Z,92.70
2018-06-24T11:29:53.207Z,93.60
2018-06-24T11:31:55.866Z,93.70
2018-06-24T11:36:32.109Z,93.50
2018-06-24T11:38:34.147Z,93.70
2018-06-24T11:40:36.217Z,94.10
2018-06-24T11:42:38.265Z,95.20
2018-06-24T11:44:40.393Z,94.10
2018-06-24T11:46:42.453Z,93.30
2018-06-24T11:48:44.527Z,93.40
2018-06-24T11:50:46.582Z,91.90
2018-06-24T11:52:48.684Z,91.50
2018-06-24T11:54:50.724Z,91.40
2018-06-24T11:56:52.819Z,91.30
2018-06-24T11:58:54.837Z,91.40
2018-06-24T12:00:56.865Z,91.80
2018-06-24T12:02:58.922Z,92.80
2018-06-24T12:05:00.977Z,93.30
2018-06-24T12:07:03.037Z,93.50
2018-06-24T12:09:08.124Z,93.90
2018-06-24T12:11:10.257Z,93.30
2018-06-24T12:13:12.358Z,93.30
2018-06-24T12:15:14.475Z,92.90
2018-06-24T12:17:16.594Z,92.70
2018-06-24T12:19:18.729Z,93.40
2018-06-24T12:21:20.870Z,93.40
2018-06-24T12:23:22.961Z,93.70
2018-06-24T12:25:25.113Z,92.20
2018-06-24T12:27:27.295Z,92.20
2018-06-24T12:29:29.403Z,93.10
2018-06-24T12:31:31.526Z,93.50
2018-06-24T12:33:33.658Z,92.10
2018-06-24T12:35:35.758Z,93.30
2018-06-24T12:37:37.897Z,94.00
2018-06-24T12:39:40.053Z,96.30
2018-06-24T12:41:42.116Z,98.80
2018-06-24T12:43:44.173Z,99.90
2018-06-24T12:45:46.245Z,99.90
2018-06-24T12:47:48.280Z,99.90
2018-06-24T12:49:50.388Z,99.90
2018-06-24T12:51:52.439Z,99.90
2018-06-24T12:53:54.500Z,99.90
2018-06-24T12:55:56.560Z,99.90
2018-06-24T12:57:58.615Z,99.90
2018-06-24T13:00:00.997Z,99.90
2018-06-24T13:02:02.748Z,99.90
2018-06-24T13:04:05.081Z,99.90
2018-06-24T13:06:07.153Z,99.90
2018-06-24T13:08:09.208Z,99.90
2018-06-24T13:10:11.248Z,99.90
2018-06-24T13:12:13.337Z,99.90
2018-06-24T13:14:15.459Z,99.90
2018-06-24T13:16:17.510Z,99.90
2018-06-24T13:18:19.589Z,99.90
2018-06-24T13:20:21.664Z,99.90
2018-06-24T13:22:23.739Z,99.90
2018-06-24T13:24:25.797Z,99.90
2018-06-24T13:26:27.864Z,99.90
2018-06-24T13:28:29.913Z,99.90
2018-06-24T13:30:31.985Z,99.90
2018-06-24T13:32:34.064Z,99.90
2018-06-24T13:34:36.160Z,99.90
2018-06-24T13:36:38.180Z,99.90
2018-06-24T13:38:40.281Z,99.90
2018-06-24T13:40:42.346Z,99.90
2018-06-24T13:42:44.428Z,99.90
2018-06-24T13:44:46.488Z,99.90
2018-06-24T13:46:48.546Z,99.90
2018-06-24T13:48:50.613Z,99.90
2018-06-24T13:50:52.688Z,99.90
2018-06-24T13:52:54.759Z,99.90
2018-06-24T13:54:56.836Z,99.90
2018-06-24T13:56:58.880Z,99.90
2018-06-24T13:59:02.013Z,99.90
2018-06-24T14:01:04.629Z,99.90
2018-06-24T14:03:06.686Z,99.90
2018-06-24T14:05:08.737Z,99.90
2018-06-24T14:07:10.788Z,99.90
2018-06-24T14:09:13.124Z,99.90
2018-06-24T14:11:15.230Z,99.90
2018-06-24T14:13:17.273Z,99.90
2018-06-24T14:15:19.333Z,99.90
2018-06-24T14:17:21.441Z,99.90
2018-06-24T14:19:23.528Z,99.90
2018-06-24T14:21:25.603Z,99.90
2018-06-24T14:23:27.783Z,99.90
2018-06-24T14:25:29.764Z,99.90
2018-06-24T14:27:31.891Z,99.90
2018-06-24T14:29:33.986Z,99.90
2018-06-24T14:31:36.047Z,99.90
2018-06-24T14:33:38.127Z,99.90
2018-06-24T14:35:40.185Z,99.90
2018-06-24T14:37:42.263Z,99.90
2018-06-24T14:39:44.362Z,99.90
2018-06-24T14:41:46.428Z,99.90
2018-06-24T14:43:48.506Z,99.90
2018-06-24T14:45:50.566Z,99.90
2018-06-24T14:47:52.656Z,99.90
2018-06-24T14:49:54.785Z,99.90
2018-06-24T14:52:07.688Z,99.90
2018-06-24T14:54:09.986Z,99.90
2018-06-24T14:56:12.040Z,99.90
2018-06-24T14:58:14.112Z,99.90
2018-06-24T15:02:18.358Z,99.90
2018-06-24T15:04:20.414Z,99.90
2018-06-24T15:06:22.469Z,99.90
2018-06-24T15:08:24.538Z,99.90
2018-06-24T15:10:26.592Z,99.90
2018-06-24T15:12:28.661Z,99.90
2018-06-24T15:14:30.718Z,99.90
2018-06-24T15:16:32.909Z,99.90
2018-06-24T15:18:34.957Z,99.90
2018-06-24T15:20:37.016Z,99.90
2018-06-24T15:22:39.062Z,99.90
2018-06-24T15:24:41.108Z,99.90
2018-06-24T15:26:43.173Z,99.90
2018-06-24T15:28:45.238Z,99.90
2018-06-24T15:30:47.297Z,99.90
2018-06-24T15:32:49.341Z,99.90
2018-06-24T15:34:51.417Z,99.90
2018-06-24T15:36:53.486Z,99.90
2018-06-24T15:38:55.560Z,99.90
2018-06-24T15:40:57.622Z,99.90
2018-06-24T15:42:59.657Z,99.90
2018-06-24T15:45:01.701Z,99.90
2018-06-24T15:47:03.865Z,99.90
2018-06-24T15:49:05.908Z,99.90
2018-06-24T15:51:07.977Z,99.90
2018-06-24T15:53:10.053Z,99.90
2018-06-24T15:55:12.101Z,99.90
2018-06-24T15:57:14.161Z,99.90
2018-06-24T15:59:16.233Z,99.90
2018-06-24T16:01:18.301Z,99.90
2018-06-24T16:03:20.357Z,99.90
2018-06-24T16:05:22.408Z,99.90
2018-06-24T16:07:24.550Z,99.90
2018-06-24T16:09:26.757Z,99.90
2018-06-24T16:11:28.968Z,99.90
2018-06-24T16:13:31.036Z,99.90
2018-06-24T16:15:33.183Z,99.90
2018-06-24T16:17:36.692Z,99.90
2018-06-24T16:19:38.786Z,99.90
2018-06-24T16:21:40.858Z,99.90
2018-06-24T16:23:42.993Z,99.90
2018-06-24T16:25:45.046Z,99.90
2018-06-24T16:27:47.553Z,99.90
2018-06-24T16:29:49.617Z,99.90
2018-06-24T16:31:51.745Z,99.90
2018-06-24T16:33:53.993Z,99.90
2018-06-24T16:35:56.038Z,99.90
2018-06-24T16:37:58.088Z,99.90
2018-06-24T16:40:00.157Z,99.90
2018-06-24T16:42:02.277Z,99.90
2018-06-24T16:44:05.451Z,99.90
2018-06-24T16:46:07.541Z,99.90
2018-06-24T16:48:09.637Z,99.90
2018-06-24T16:50:11.700Z,99.90
2018-06-24T16:52:13.758Z,99.90
2018-06-24T16:54:15.822Z,99.90
2018-06-24T16:59:02.485Z,99.90
2018-06-24T17:01:04.589Z,99.90
2018-06-24T17:03:06.850Z,99.90
2018-06-24T17:05:09.043Z,99.90
2018-06-24T17:07:11.118Z,99.90
2018-06-24T17:09:13.166Z,99.90
2018-06-24T17:11:22.150Z,99.90
2018-06-24T17:13:24.198Z,99.90
2018-06-24T17:15:26.270Z,99.90
2018-06-24T17:17:28.334Z,99.90
2018-06-24T17:19:30.421Z,99.90
2018-06-24T17:21:32.486Z,99.90
2018-06-24T17:23:34.553Z,99.90
2018-06-24T17:25:36.602Z,99.90
2018-06-24T17:27:38.665Z,99.90
2018-06-24T17:29:40.709Z,99.90
2018-06-24T17:31:49.128Z,99.90
2018-06-24T17:33:51.581Z,99.90
2018-06-24T17:35:53.646Z,99.90
2018-06-24T17:37:55.722Z,99.90
2018-06-24T17:39:58.777Z,99.90
2018-06-24T17:42:00.830Z,99.90
2018-06-24T17:44:02.901Z,99.90
2018-06-24T17:46:17.535Z,99.90
2018-06-24T17:48:19.605Z,99.90
2018-06-24T17:50:21.673Z,99.90
2018-06-24T17:52:23.742Z,99.90
2018-06-24T17:54:25.797Z,99.90
2018-06-24T17:56:28.918Z,99.90
2018-06-24T17:58:30.985Z,99.90
2018-06-24T18:00:33.049Z,99.90
2018-06-24T18:02:35.121Z,99.90
2018-06-24T18:04:37.198Z,99.90
2018-06-24T18:06:39.239Z,99.90
2018-06-24T18:08:41.306Z,99.90
2018-06-24T18:10:43.398Z,99.90
2018-06-24T18:12:45.490Z,99.90
2018-06-24T18:14:47.557Z,99.90
2018-06-24T18:16:51.711Z,99.90
2018-06-24T18:18:53.806Z,99.90
2018-06-24T18:20:55.822Z,99.90
2018-06-24T18:22:57.869Z,99.90
2018-06-24T18:24:59.932Z,99.90
2018-06-24T18:27:01.999Z,99.90
2018-06-24T18:29:04.048Z,99.90
2018-06-24T18:31:06.091Z,99.90
2018-06-24T18:33:08.146Z,99.90
2018-06-24T18:35:10.210Z,99.90
2018-06-24T18:37:12.269Z,99.90
2018-06-24T18:39:14.341Z,99.90
2018-06-24T18:41:16.398Z,99.90
2018-06-24T18:43:18.465Z,99.90
2018-06-24T18:45:20.583Z,99.90
2018-06-24T18:47:22.608Z,99.90
2018-06-24T18:49:24.722Z,99.90
2018-06-24T18:51:26.749Z,99.90
2018-06-24T18:53:28.866Z,99.90
2018-06-24T18:55:31.049Z,99.90
2018-06-24T18:57:33.102Z,99.90
2018-06-24T18:59:35.173Z,99.90
2018-06-24T19:01:37.341Z,99.90
2018-06-24T19:03:39.398Z,99.90
2018-06-24T19:05:41.466Z,99.90
2018-06-24T19:07:43.518Z,99.90
2018-06-24T19:09:45.720Z,99.90
2018-06-24T19:11:47.779Z,99.90
2018-06-24T19:13:49.829Z,99.90
2018-06-24T19:15:51.947Z,99.90
2018-06-24T19:17:53.978Z,99.90
2018-06-24T19:19:56.077Z,99.90
2018-06-24T19:21:58.169Z,99.90
2018-06-24T19:24:00.249Z,99.90
2018-06-24T19:26:02.338Z,99.90
2018-06-24T19:28:04.681Z,99.90
2018-06-24T19:30:06.821Z,99.90
2018-06-24T19:32:08.905Z,99.90
2018-06-24T19:34:10.962Z,99.90
2018-06-24T19:36:13.031Z,99.90
2018-06-24T19:38:15.107Z,99.90
2018-06-24T19:40:17.270Z,99.90
2018-06-24T19:42:19.356Z,99.90
2018-06-24T19:44:21.477Z,99.90
2018-06-24T19:46:23.581Z,99.90
2018-06-24T19:48:25.641Z,99.90
2018-06-24T19:50:27.709Z,99.90
2018-06-24T19:52:29.789Z,99.90
2018-06-24T19:54:31.831Z,99.90
2018-06-24T19:56:33.915Z,99.90
2018-06-24T19:58:36.017Z,99.90
2018-06-24T20:02:40.189Z,99.90
2018-06-24T20:04:42.269Z,99.90
2018-06-24T20:06:44.397Z,99.90
2018-06-24T20:08:46.460Z,99.90
2018-06-24T20:10:48.537Z,99.90
2018-06-24T20:12:50.646Z,99.90
2018-06-24T20:14:52.683Z,99.90
2018-06-24T20:16:54.729Z,99.90
2018-06-24T20:18:56.789Z,99.90
2018-06-24T20:20:58.858Z,99.90
2018-06-24T20:23:00.903Z,99.90
2018-06-24T20:25:03.077Z,99.90
2018-06-24T20:27:05.110Z,99.90
2018-06-24T20:29:07.150Z,99.90
2018-06-24T20:31:09.225Z,99.90
2018-06-24T20:33:11.302Z,99.90
2018-06-24T20:35:13.375Z,99.90
2018-06-24T20:37:15.397Z,99.90
2018-06-24T20:39:17.453Z,99.90
2018-06-24T20:41:19.517Z,99.90
2018-06-24T20:43:21.557Z,99.90
2018-06-24T20:45:23.618Z,99.90
2018-06-24T20:47:25.685Z,99.90
2018-06-24T20:49:27.778Z,99.90
2018-06-24T20:51:29.838Z,99.90
2018-06-24T20:53:31.870Z,99.90
2018-06-24T20:55:33.990Z,99.90
2018-06-24T20:57:36.038Z,99.90
2018-06-24T20:59:38.077Z,99.90
2018-06-24T21:01:40.133Z,99.90
2018-06-24T21:03:42.191Z,99.90
2018-06-24T21:05:44.285Z,99.90
2018-06-24T21:07:46.341Z,99.90
2018-06-24T21:09:48.373Z,99.90
2018-06-24T21:11:50.412Z,99.90
2018-06-24T21:13:52.674Z,99.90
2018-06-24T21:15:54.834Z,99.90
2018-06-24T21:17:56.899Z,99.90
2018-06-24T21:19:58.972Z,99.90
2018-06-24T21:22:01.079Z,99.90
2018-06-24T21:24:03.249Z,99.90
2018-06-24T21:26:05.562Z,99.90
2018-06-24T21:28:07.605Z,99.90
2018-06-24T21:30:09.905Z,99.90
2018-06-24T21:32:11.953Z,99.90
2018-06-24T21:34:13.994Z,99.90
2018-06-24T21:36:16.104Z,99.90
2018-06-24T21:38:18.166Z,99.90
2018-06-24T21:40:20.378Z,99.90
2018-06-24T21:42:22.430Z,99.90
2018-06-24T21:44:25.031Z,99.90
2018-06-24T21:46:27.183Z,99.90
2018-06-24T21:48:29.330Z,99.90
2018-06-24T21:50:31.393Z,99.90
2018-06-24T21:52:33.465Z,99.90
2018-06-24T21:54:35.519Z,99.90
2018-06-24T21:56:37.573Z,99.90
2018-06-24T21:58:39.614Z,99.90
2018-06-24T22:00:41.671Z,99.90
2018-06-24T22:02:43.755Z,99.90
2018-06-24T22:04:45.826Z,99.90
2018-06-24T22:06:47.871Z,99.90
2018-06-24T22:08:49.930Z,99.90
2018-06-24T22:10:52.006Z,99.90
2018-06-24T22:12:54.074Z,99.90
2018-06-24T22:14:56.554Z,99.90
2018-06-24T22:16:58.624Z,99.90
2018-06-24T22:19:00.654Z,99.90
2018-06-24T22:21:02.714Z,99.90
2018-06-24T22:23:04.782Z,99.90
2018-06-24T22:25:06.842Z,99.90
2018-06-24T22:27:08.897Z,99.90
2018-06-24T22:29:10.958Z,99.90
2018-06-24T22:31:12.991Z,99.90
2018-06-24T22:33:15.043Z,99.90
2018-06-24T22:35:17.106Z,99.90
2018-06-24T22:37:19.165Z,99.90
2018-06-24T22:39:21.217Z,99.90
2018-06-24T22:41:23.442Z,99.90
2018-06-24T22:43:25.514Z,99.90
2018-06-24T22:45:27.546Z,99.90
2018-06-24T22:47:29.596Z,99.90
2018-06-24T22:51:33.791Z,99.90
2018-06-24T22:53:35.873Z,99.90
2018-06-24T22:55:37.954Z,99.90
2018-06-24T22:57:40.018Z,99.90
2018-06-24T23:00:24.395Z,99.90
2018-06-24T23:02:26.449Z,99.90
2018-06-24T23:04:28.489Z,99.90
2018-06-24T23:06:30.550Z,99.90
2018-06-24T23:08:32.622Z,99.90
2018-06-24T23:10:34.637Z,99.90
2018-06-24T23:12:36.709Z,99.90
2018-06-24T23:14:38.779Z,99.90
2018-06-24T23:16:40.834Z,99.90
2018-06-24T23:18:42.870Z,99.90
2018-06-24T23:20:44.953Z,99.90
2018-06-24T23:22:47.022Z,99.90
2018-06-24T23:24:49.097Z,99.90
2018-06-24T23:26:51.162Z,99.90
2018-06-24T23:28:53.205Z,99.90
2018-06-24T23:30:55.289Z,99.90
2018-06-24T23:32:57.350Z,99.90
2018-06-24T23:34:59.624Z,99.90
2018-06-24T23:37:01.723Z,99.90
2018-06-24T23:39:06.373Z,99.90
2018-06-24T23:41:08.457Z,99.90
2018-06-24T23:43:10.489Z,99.90
2018-06-24T23:45:12.526Z,99.90
2018-06-24T23:47:14.625Z,99.90
2018-06-24T23:49:16.713Z,99.90
2018-06-24T23:51:18.757Z,99.90
2018-06-24T23:53:20.826Z,99.90
2018-06-24T23:55:22.866Z,99.90
2018-06-24T23:57:24.910Z,99.90
2018-06-24T23:59:26.961Z,99.90
